Time;durP1;ratioP1;P1;durP2;ratioP2;P2;SDS_P1;SDS_P2;PMS_P1;PMS_P2;Temp;Humidity;BMP_temperature;BMP_pressure;BME280_temperature;BME280_humidity;BME280_pressure;Samples;Min_cycle;Max_cycle;Signal;HPM_P1;HPM_P2
2022/05/28 00:00:17;;;;;;;0.57;0.57;;;13.40;97.10;;;;;;4953909;29;20714;-63
2022/05/28 00:02:44;;;;;;;0.00;0.00;;;13.40;97.30;;;;;;4954546;28;20118;-64
2022/05/28 00:05:10;;;;;;;0.00;0.00;;;13.40;97.00;;;;;;4953490;29;20042;-63
2022/05/28 00:07:35;;;;;;;1.27;1.17;;;13.30;97.20;;;;;;4954679;28;20121;-63
2022/05/28 00:10:02;;;;;;;0.00;0.00;;;13.20;97.40;;;;;;4954117;29;20623;-64
2022/05/28 00:12:30;;;;;;;0.00;0.00;;;13.30;97.20;;;;;;4953542;28;20106;-64
2022/05/28 00:14:57;;;;;;;0.93;0.65;;;13.30;97.10;;;;;;4954257;28;20503;-64
2022/05/28 00:17:24;;;;;;;0.35;0.35;;;13.10;97.40;;;;;;4954278;29;20042;-64
2022/05/28 00:19:51;;;;;;;0.00;0.00;;;13.00;97.60;;;;;;4953400;29;20063;-64
2022/05/28 00:22:17;;;;;;;23.17;1.08;;;13.00;98.00;;;;;;4954010;28;20038;-64
2022/05/28 00:24:43;;;;;;;0.10;0.10;;;12.90;98.10;;;;;;4953273;29;20031;-64
2022/05/28 00:27:09;;;;;;;0.00;0.00;;;12.80;98.40;;;;;;4954468;29;20036;-64
2022/05/28 00:29:34;;;;;;;0.20;0.20;;;12.70;98.60;;;;;;4953422;29;20045;-64
2022/05/28 00:32:00;;;;;;;0.00;0.00;;;12.60;98.90;;;;;;4954489;28;20079;-64
2022/05/28 00:34:27;;;;;;;0.10;0.10;;;12.70;99.10;;;;;;4954004;29;20046;-64
2022/05/28 00:36:53;;;;;;;0.00;0.00;;;12.60;98.90;;;;;;4952801;29;20031;-64
2022/05/28 00:39:19;;;;;;;1.05;1.05;;;12.60;99.10;;;;;;4953448;29;20031;-65
2022/05/28 00:41:44;;;;;;;0.10;0.10;;;12.50;99.30;;;;;;4953793;28;20181;-64
2022/05/28 00:44:11;;;;;;;0.05;0.05;;;12.50;99.30;;;;;;4953694;28;20470;-63
2022/05/28 00:46:37;;;;;;;0.22;0.22;;;12.50;99.30;;;;;;4936581;29;20027;-63
2022/05/28 00:49:07;;;;;;;0.00;0.00;;;12.40;99.40;;;;;;4953152;29;20502;-63
2022/05/28 00:51:41;;;;;;;1.60;1.50;;;12.40;99.60;;;;;;4953101;28;20057;-63
2022/05/28 00:54:08;;;;;;;0.00;0.00;;;12.30;99.70;;;;;;4952454;28;20290;-63
2022/05/28 00:56:35;;;;;;;0.05;0.05;;;12.20;99.80;;;;;;4952855;29;20031;-63
2022/05/28 00:59:03;;;;;;;0.30;0.30;;;12.10;99.90;;;;;;4951475;29;20110;-63
2022/05/28 01:01:33;;;;;;;0.22;0.22;;;12.10;99.90;;;;;;4952504;28;20031;-63
2022/05/28 01:04:49;;;;;;;3.13;2.30;;;12.10;99.90;;;;;;4950914;29;20388;-63
2022/05/28 01:08:08;;;;;;;6.22;1.27;;;12.10;99.90;;;;;;4942058;29;20124;-63
2022/05/28 01:11:05;;;;;;;0.00;0.00;;;12.10;99.90;;;;;;4934215;29;20046;-63
2022/05/28 01:13:42;;;;;;;0.13;0.13;;;12.00;99.90;;;;;;4937198;29;20116;-63
2022/05/28 01:16:19;;;;;;;0.05;0.05;;;11.90;99.90;;;;;;4952085;29;20058;-63
2022/05/28 01:19:22;;;;;;;0.10;0.10;;;11.90;99.90;;;;;;4936309;29;20031;-63
2022/05/28 01:21:56;;;;;;;0.00;0.00;;;11.80;99.90;;;;;;4951867;29;20058;-63
2022/05/28 01:24:46;;;;;;;0.00;0.00;;;11.80;99.90;;;;;;4926311;29;20031;-63
2022/05/28 01:27:30;;;;;;;0.52;0.52;;;11.70;99.90;;;;;;4918111;29;20032;-63
2022/05/28 01:30:04;;;;;;;0.00;0.00;;;11.60;99.90;;;;;;4917302;29;20038;-63
2022/05/28 01:32:33;;;;;;;0.00;0.00;;;11.50;99.90;;;;;;4917641;29;20163;-63
2022/05/28 01:35:05;;;;;;;0.80;0.80;;;11.60;99.90;;;;;;4917163;29;20120;-63
2022/05/28 01:37:32;;;;;;;3.42;1.27;;;11.70;99.90;;;;;;4917304;29;20448;-63
2022/05/28 01:40:01;;;;;;;8.73;1.27;;;11.60;99.90;;;;;;4916242;29;20396;-63
2022/05/28 01:42:28;;;;;;;0.00;0.00;;;11.70;99.90;;;;;;4935186;29;20032;-65
2022/05/28 01:44:55;;;;;;;0.00;0.00;;;11.80;99.90;;;;;;4951514;29;20042;-64
2022/05/28 01:47:23;;;;;;;0.00;0.00;;;11.70;99.90;;;;;;4952762;29;20023;-64
2022/05/28 01:49:49;;;;;;;0.10;0.10;;;11.70;99.90;;;;;;4934856;29;20038;-64
2022/05/28 01:52:17;;;;;;;0.17;0.17;;;11.60;99.90;;;;;;4951208;28;20122;-64
2022/05/28 01:54:49;;;;;;;0.00;0.00;;;11.60;99.90;;;;;;4951675;29;20082;-64
2022/05/28 01:57:15;;;;;;;0.50;0.50;;;11.60;99.90;;;;;;4935553;28;20499;-64
2022/05/28 01:59:41;;;;;;;0.00;0.00;;;11.60;99.90;;;;;;4950621;29;20488;-65
2022/05/28 02:02:13;;;;;;;3.05;1.98;;;11.60;99.90;;;;;;4952596;28;20032;-63
2022/05/28 02:04:42;;;;;;;0.43;0.43;;;11.50;99.90;;;;;;4951457;29;20038;-65
2022/05/28 02:07:08;;;;;;;0.10;0.10;;;11.60;99.90;;;;;;4950632;29;20480;-63
2022/05/28 02:09:41;;;;;;;0.10;0.10;;;11.70;99.90;;;;;;4951648;29;20043;-63
2022/05/28 02:12:39;;;;;;;0.10;0.10;;;11.60;99.90;;;;;;4934750;29;20133;-63
2022/05/28 02:15:25;;;;;;;0.10;0.10;;;11.60;99.90;;;;;;4943700;28;20074;-63
2022/05/28 02:18:52;;;;;;;0.00;0.00;;;11.70;99.90;;;;;;4936150;29;20031;-63
2022/05/28 02:22:02;;;;;;;0.20;0.20;;;11.70;99.90;;;;;;4937469;29;20039;-64
2022/05/28 02:24:41;;;;;;;0.00;0.00;;;11.70;99.90;;;;;;4909656;29;20035;-63
2022/05/28 02:27:14;;;;;;;0.00;0.00;;;11.60;99.90;;;;;;4952403;29;20026;-63
2022/05/28 02:29:40;;;;;;;0.00;0.00;;;11.60;99.90;;;;;;4935019;29;20028;-64
2022/05/28 02:32:23;;;;;;;0.00;0.00;;;11.60;99.90;;;;;;4935275;29;20027;-64
2022/05/28 02:34:50;;;;;;;0.10;0.08;;;11.60;99.90;;;;;;4935551;29;20050;-64
2022/05/28 02:37:22;;;;;;;1.45;0.50;;;11.60;99.90;;;;;;4952424;29;20110;-64
2022/05/28 02:39:48;;;;;;;0.10;0.10;;;11.50;99.90;;;;;;4951193;29;20518;-64
2022/05/28 02:42:14;;;;;;;0.65;0.65;;;11.50;99.90;;;;;;4935028;29;20042;-63
2022/05/28 02:44:40;;;;;;;0.00;0.00;;;11.50;99.90;;;;;;4935327;29;20027;-63
2022/05/28 02:47:06;;;;;;;0.00;0.00;;;11.50;99.90;;;;;;4952149;29;20034;-63
2022/05/28 02:49:32;;;;;;;0.20;0.20;;;11.50;99.90;;;;;;4951188;29;20062;-63
2022/05/28 02:52:04;;;;;;;0.00;0.00;;;11.50;99.90;;;;;;4935015;29;20075;-63
2022/05/28 02:54:31;;;;;;;0.00;0.00;;;11.40;99.90;;;;;;4934823;29;20039;-64
2022/05/28 02:56:57;;;;;;;0.00;0.00;;;11.30;99.90;;;;;;4952059;29;20035;-64
2022/05/28 02:59:23;;;;;;;0.00;0.00;;;11.40;99.90;;;;;;4951208;28;20035;-64
2022/05/28 03:01:50;;;;;;;0.00;0.00;;;11.50;99.90;;;;;;4934615;29;20035;-64
2022/05/28 03:04:17;;;;;;;0.00;0.00;;;11.50;99.90;;;;;;4952085;29;20020;-64
2022/05/28 03:06:43;;;;;;;0.00;0.00;;;11.50;99.90;;;;;;4935322;29;20500;-64
2022/05/28 03:09:09;;;;;;;0.00;0.00;;;11.40;99.90;;;;;;4933957;29;20170;-64
2022/05/28 03:11:37;;;;;;;0.52;0.52;;;11.40;99.90;;;;;;4951986;29;20036;-64
2022/05/28 03:14:04;;;;;;;0.10;0.10;;;11.30;99.90;;;;;;4951394;29;20034;-64
2022/05/28 03:16:31;;;;;;;0.70;0.70;;;11.30;99.90;;;;;;4932471;29;20028;-64
2022/05/28 03:18:57;;;;;;;0.22;0.22;;;11.20;99.90;;;;;;4918430;29;20047;-64
2022/05/28 03:21:23;;;;;;;0.00;0.00;;;11.20;99.90;;;;;;4936196;29;20480;-64
2022/05/28 03:23:49;;;;;;;0.00;0.00;;;11.10;99.90;;;;;;4936129;29;20031;-64
2022/05/28 03:26:22;;;;;;;0.10;0.10;;;11.10;99.90;;;;;;4919279;29;20032;-64
2022/05/28 03:28:49;;;;;;;0.00;0.00;;;11.10;99.90;;;;;;4935267;29;20031;-64
2022/05/28 03:31:16;;;;;;;0.13;0.13;;;11.00;99.90;;;;;;4936127;29;20440;-64
2022/05/28 03:33:42;;;;;;;0.00;0.00;;;11.00;99.90;;;;;;4919150;29;20031;-63
2022/05/28 03:36:09;;;;;;;0.10;0.10;;;10.90;99.90;;;;;;4936312;29;20036;-64
2022/05/28 03:38:36;;;;;;;0.10;0.10;;;10.80;99.90;;;;;;4935190;29;20067;-64
2022/05/28 03:41:04;;;;;;;0.00;0.00;;;10.60;99.90;;;;;;4935761;29;20060;-64
2022/05/28 03:43:30;;;;;;;0.00;0.00;;;10.40;99.90;;;;;;4935605;29;20019;-64
2022/05/28 03:45:56;;;;;;;0.00;0.00;;;10.20;99.90;;;;;;4936063;29;20028;-64
2022/05/28 03:48:23;;;;;;;0.10;0.10;;;10.20;99.90;;;;;;4935731;29;20035;-64
2022/05/28 03:50:49;;;;;;;0.10;0.10;;;10.00;99.90;;;;;;4935317;29;20035;-64
2022/05/28 03:53:18;;;;;;;0.52;0.52;;;10.10;99.90;;;;;;4935499;29;20047;-64
2022/05/28 03:55:44;;;;;;;0.03;0.03;;;10.10;99.90;;;;;;4935369;29;20099;-64
2022/05/28 03:58:11;;;;;;;0.00;0.00;;;10.30;99.90;;;;;;4918477;29;20042;-63
2022/05/28 04:00:37;;;;;;;0.00;0.00;;;10.30;99.90;;;;;;4917678;29;20147;-63
2022/05/28 04:03:03;;;;;;;0.00;0.00;;;10.30;99.90;;;;;;4902772;29;20059;-63
2022/05/28 04:05:29;;;;;;;0.00;0.00;;;10.30;99.90;;;;;;4935258;29;20187;-63
2022/05/28 04:07:55;;;;;;;0.00;0.00;;;10.20;99.90;;;;;;4935513;29;20481;-63
2022/05/28 04:10:21;;;;;;;0.00;0.00;;;10.20;99.90;;;;;;4934818;29;20035;-63
2022/05/28 04:12:46;;;;;;;0.17;0.17;;;10.20;99.90;;;;;;4918481;29;20051;-63
2022/05/28 04:15:13;;;;;;;0.00;0.00;;;10.20;99.90;;;;;;4926575;29;20035;-63
2022/05/28 04:17:39;;;;;;;0.28;0.28;;;10.20;99.90;;;;;;4937235;29;20094;-63
2022/05/28 04:20:09;;;;;;;0.00;0.00;;;10.20;99.90;;;;;;4936512;29;20408;-63
2022/05/28 04:22:34;;;;;;;0.00;0.00;;;10.20;99.90;;;;;;4937222;29;20035;-63
2022/05/28 04:25:00;;;;;;;0.00;0.00;;;10.20;99.90;;;;;;4953706;28;20108;-63
2022/05/28 04:27:26;;;;;;;0.13;0.13;;;10.00;99.90;;;;;;4954285;29;20030;-63
2022/05/28 04:29:51;;;;;;;0.17;0.17;;;10.00;99.90;;;;;;4935845;29;20027;-63
2022/05/28 04:32:18;;;;;;;0.00;0.00;;;9.50;99.90;;;;;;4954118;29;20035;-63
2022/05/28 04:34:46;;;;;;;0.00;0.00;;;9.50;99.90;;;;;;4954062;29;20073;-63
2022/05/28 04:37:12;;;;;;;0.93;0.85;;;9.50;99.90;;;;;;4954344;29;20341;-63
2022/05/28 04:39:38;;;;;;;0.00;0.00;;;9.50;99.90;;;;;;4953070;29;20387;-63
2022/05/28 04:42:04;;;;;;;6.10;1.45;;;9.70;99.90;;;;;;4953618;29;20039;-63
2022/05/28 04:44:30;;;;;;;0.00;0.00;;;9.90;99.90;;;;;;4936919;29;20027;-63
2022/05/28 04:46:56;;;;;;;0.05;0.05;;;10.10;99.90;;;;;;4953775;29;20110;-63
2022/05/28 04:49:21;;;;;;;0.08;0.08;;;10.20;99.90;;;;;;4935870;29;20027;-63
2022/05/28 04:51:48;;;;;;;2.53;1.15;;;10.30;99.90;;;;;;4936336;29;20039;-62
2022/05/28 04:54:14;;;;;;;0.10;0.10;;;10.30;99.90;;;;;;4953476;29;20058;-62
2022/05/28 04:56:39;;;;;;;0.40;0.40;;;10.30;99.90;;;;;;4952505;29;20566;-62
2022/05/28 04:59:05;;;;;;;0.13;0.10;;;10.40;99.90;;;;;;4967630;28;20027;-62
2022/05/28 05:01:31;;;;;;;0.05;0.05;;;10.50;99.90;;;;;;4936521;29;20032;-62
2022/05/28 05:03:56;;;;;;;0.20;0.20;;;10.60;99.90;;;;;;4953479;29;20027;-61
2022/05/28 05:06:22;;;;;;;0.10;0.10;;;10.60;99.90;;;;;;4953363;29;20031;-62
2022/05/28 05:08:48;;;;;;;0.00;0.00;;;10.60;99.90;;;;;;4967436;28;20035;-62
2022/05/28 05:11:14;;;;;;;0.15;0.15;;;10.60;99.90;;;;;;4953144;28;20039;-62
2022/05/28 05:13:39;;;;;;;0.00;0.00;;;10.60;99.90;;;;;;4953098;29;20032;-62
2022/05/28 05:16:11;;;;;;;1.25;0.85;;;10.60;99.90;;;;;;4938180;29;20508;-62
2022/05/28 05:18:37;;;;;;;0.00;0.00;;;10.60;99.90;;;;;;4933534;29;20062;-62
2022/05/28 05:21:03;;;;;;;0.90;0.85;;;10.70;99.90;;;;;;4934286;29;20067;-62
2022/05/28 05:23:28;;;;;;;0.47;0.47;;;10.80;99.90;;;;;;4934074;29;20428;-62
2022/05/28 05:25:54;;;;;;;0.80;0.80;;;10.90;99.90;;;;;;4934030;29;20032;-62
2022/05/28 05:28:20;;;;;;;0.00;0.00;;;11.00;99.90;;;;;;4933576;29;20028;-63
2022/05/28 05:30:46;;;;;;;0.10;0.10;;;11.00;99.90;;;;;;4932981;29;20126;-63
2022/05/28 05:33:11;;;;;;;0.93;0.90;;;11.10;99.90;;;;;;4933575;29;20066;-63
2022/05/28 05:35:37;;;;;;;0.05;0.05;;;11.30;99.90;;;;;;4934110;29;20144;-62
2022/05/28 05:38:05;;;;;;;0.15;0.15;;;11.30;99.90;;;;;;4933579;29;20031;-62
2022/05/28 05:40:37;;;;;;;0.10;0.10;;;11.40;99.90;;;;;;4931850;29;20030;-62
2022/05/28 05:43:04;;;;;;;0.08;0.08;;;11.40;99.90;;;;;;4916741;29;20038;-62
2022/05/28 05:45:30;;;;;;;0.00;0.00;;;11.40;99.90;;;;;;4933699;29;20481;-62
2022/05/28 05:47:56;;;;;;;0.10;0.10;;;11.60;99.90;;;;;;4916936;29;20067;-62
2022/05/28 05:50:22;;;;;;;4.85;3.03;;;11.70;99.90;;;;;;4932863;29;20035;-62
2022/05/28 05:52:48;;;;;;;2.90;1.35;;;11.70;99.90;;;;;;4933622;29;20033;-62
2022/05/28 05:55:15;;;;;;;1.20;1.17;;;12.10;99.90;;;;;;4933583;29;20040;-63
2022/05/28 05:57:40;;;;;;;0.10;0.10;;;12.30;99.90;;;;;;4916125;29;20610;-62
2022/05/28 06:00:07;;;;;;;35.50;1.23;;;12.40;99.90;;;;;;4932463;29;20115;-63
2022/05/28 06:02:33;;;;;;;0.00;0.00;;;12.80;99.90;;;;;;4938230;29;20050;-62
2022/05/28 06:04:59;;;;;;;0.40;0.40;;;12.80;99.90;;;;;;4932175;29;20492;-62
2022/05/28 06:07:25;;;;;;;15.32;2.20;;;12.80;99.90;;;;;;4933200;29;20034;-63
2022/05/28 06:09:51;;;;;;;0.10;0.10;;;13.20;99.90;;;;;;4932571;29;20051;-62
2022/05/28 06:12:20;;;;;;;0.00;0.00;;;13.20;99.90;;;;;;4933415;29;20067;-63
2022/05/28 06:14:45;;;;;;;1.45;1.20;;;13.00;99.90;;;;;;4933358;29;20408;-61
2022/05/28 06:17:11;;;;;;;0.00;0.00;;;13.00;99.20;;;;;;4933509;29;20032;-62
2022/05/28 06:19:37;;;;;;;0.00;0.00;;;13.20;99.30;;;;;;4932424;29;20074;-62
2022/05/28 06:22:03;;;;;;;0.00;0.00;;;13.50;99.10;;;;;;4939018;28;20046;-62
2022/05/28 06:24:28;;;;;;;0.10;0.10;;;13.70;98.10;;;;;;4951544;29;20090;-61
2022/05/28 06:27:01;;;;;;;0.88;0.82;;;13.80;97.50;;;;;;4951973;28;20027;-61
2022/05/28 06:29:28;;;;;;;0.00;0.00;;;13.90;97.30;;;;;;4933601;29;20034;-61
2022/05/28 06:31:54;;;;;;;0.00;0.00;;;13.80;96.80;;;;;;4951514;28;20042;-61
2022/05/28 06:34:28;;;;;;;0.00;0.00;;;13.90;96.60;;;;;;4951865;29;20110;-66
2022/05/28 06:36:54;;;;;;;0.10;0.10;;;14.00;96.70;;;;;;4935046;29;20035;-61
2022/05/28 06:39:19;;;;;;;0.00;0.00;;;14.20;96.20;;;;;;4951583;29;20166;-61
2022/05/28 06:41:45;;;;;;;0.00;0.00;;;14.10;96.40;;;;;;4951944;28;20039;-61
2022/05/28 06:44:11;;;;;;;0.20;0.20;;;14.20;96.00;;;;;;4952190;29;20035;-61
2022/05/28 06:46:37;;;;;;;0.10;0.10;;;14.20;96.10;;;;;;4951699;29;20503;-61
2022/05/28 06:49:03;;;;;;;0.00;0.00;;;14.40;95.90;;;;;;4951261;29;20110;-62
2022/05/28 06:51:28;;;;;;;0.65;0.65;;;14.40;95.70;;;;;;4951956;28;20658;-61
2022/05/28 06:53:54;;;;;;;0.00;0.00;;;14.30;95.90;;;;;;4955667;29;20039;-62
2022/05/28 06:56:20;;;;;;;0.63;0.63;;;14.20;96.00;;;;;;4955620;29;20038;-62
2022/05/28 06:58:46;;;;;;;3.03;1.23;;;14.20;96.10;;;;;;4955172;29;20063;-62
2022/05/28 07:01:15;;;;;;;0.00;0.00;;;14.20;95.90;;;;;;4953842;28;20074;-63
2022/05/28 07:03:43;;;;;;;1.00;0.65;;;14.20;96.20;;;;;;4954266;29;20031;-62
2022/05/28 07:06:13;;;;;;;0.00;0.00;;;14.40;96.30;;;;;;4954880;29;20031;-63
2022/05/28 07:08:40;;;;;;;0.00;0.00;;;14.50;95.80;;;;;;4937949;29;20027;-61
2022/05/28 07:11:06;;;;;;;0.00;0.00;;;14.60;95.70;;;;;;4953797;28;20031;-62
2022/05/28 07:13:33;;;;;;;0.00;0.00;;;14.70;95.70;;;;;;4937993;29;20043;-61
2022/05/28 07:15:58;;;;;;;1.17;0.65;;;14.80;95.40;;;;;;4953932;29;20163;-61
2022/05/28 07:18:25;;;;;;;1.20;1.17;;;14.90;95.10;;;;;;4937585;29;20147;-62
2022/05/28 07:20:51;;;;;;;0.00;0.00;;;14.70;95.10;;;;;;4953628;28;20035;-61
2022/05/28 07:23:30;;;;;;;0.20;0.20;;;14.60;95.30;;;;;;4953863;28;20038;-63
2022/05/28 07:26:13;;;;;;;3.25;1.58;;;14.70;95.20;;;;;;4937959;29;20031;-62
2022/05/28 07:28:41;;;;;;;0.00;0.00;;;14.70;95.40;;;;;;4954325;29;20042;-62
2022/05/28 07:31:18;;;;;;;0.00;0.00;;;14.70;95.40;;;;;;4938108;28;20039;-63
2022/05/28 07:33:45;;;;;;;0.00;0.00;;;14.80;95.40;;;;;;4953570;29;20032;-61
2022/05/28 07:36:15;;;;;;;0.00;0.00;;;14.90;95.30;;;;;;4937623;29;20042;-61
2022/05/28 07:38:42;;;;;;;0.70;0.57;;;15.00;95.60;;;;;;4952903;29;20054;-62
2022/05/28 07:41:12;;;;;;;0.08;0.08;;;14.90;95.50;;;;;;4953843;28;20028;-65
2022/05/28 07:43:39;;;;;;;1.27;0.52;;;15.10;95.50;;;;;;4953764;29;20119;-63
2022/05/28 07:46:15;;;;;;;0.00;0.00;;;15.00;95.40;;;;;;4938114;29;20053;-61
2022/05/28 07:48:41;;;;;;;0.00;0.00;;;14.90;95.60;;;;;;4954224;29;20436;-61
2022/05/28 07:51:07;;;;;;;2.67;0.32;;;14.80;95.60;;;;;;4961110;28;20034;-61
2022/05/28 07:53:37;;;;;;;0.00;0.00;;;14.80;95.70;;;;;;4974266;28;20039;-61
2022/05/28 07:56:05;;;;;;;1.33;0.73;;;14.70;96.10;;;;;;4956949;28;20031;-61
2022/05/28 07:58:31;;;;;;;0.20;0.20;;;14.80;96.10;;;;;;4956119;28;20027;-61
2022/05/28 08:00:57;;;;;;;0.08;0.08;;;14.80;96.10;;;;;;4956071;28;20514;-61
2022/05/28 08:03:23;;;;;;;0.20;0.20;;;15.00;96.10;;;;;;4972888;28;20027;-60
2022/05/28 08:05:52;;;;;;;0.00;0.00;;;15.20;95.30;;;;;;4956297;28;20030;-62
2022/05/28 08:08:21;;;;;;;1.05;0.63;;;15.30;95.20;;;;;;4956848;28;20126;-61
2022/05/28 08:10:49;;;;;;;0.00;0.00;;;15.40;94.80;;;;;;4956158;28;20070;-61
2022/05/28 08:13:19;;;;;;;0.00;0.00;;;15.30;94.70;;;;;;4956940;28;20027;-61
2022/05/28 08:15:47;;;;;;;1.35;1.00;;;15.50;94.80;;;;;;4956308;28;20039;-61
2022/05/28 08:18:16;;;;;;;0.00;0.00;;;15.60;94.50;;;;;;4973768;28;20162;-61
2022/05/28 08:23:27;;;;;;;0.45;0.45;;;15.80;94.30;;;;;;4953793;28;20110;-67
2022/05/28 08:25:53;;;;;;;0.00;0.00;;;16.30;94.00;;;;;;4954371;29;20115;-67
2022/05/28 08:28:20;;;;;;;0.43;0.43;;;16.80;93.20;;;;;;4953820;29;20039;-66
2022/05/28 08:30:46;;;;;;;0.13;0.08;;;17.40;92.10;;;;;;4952979;29;20043;-66
2022/05/28 08:33:20;;;;;;;0.00;0.00;;;17.40;91.60;;;;;;4936761;29;20110;-66
2022/05/28 08:35:47;;;;;;;0.03;0.03;;;17.60;91.50;;;;;;4937040;29;20498;-68
2022/05/28 08:38:18;;;;;;;0.25;0.25;;;17.40;91.70;;;;;;4936871;29;20038;-69
2022/05/28 08:41:16;;;;;;;0.00;0.00;;;17.80;90.80;;;;;;4953308;29;20031;-66
2022/05/28 08:44:08;;;;;;;0.00;0.00;;;17.90;90.00;;;;;;4911793;29;20042;-68
2022/05/28 08:46:36;;;;;;;1.98;0.30;;;17.40;87.70;;;;;;4936473;29;20385;-66
2022/05/28 08:49:08;;;;;;;0.00;0.00;;;17.40;88.40;;;;;;4935625;29;20027;-66
2022/05/28 08:51:44;;;;;;;0.00;0.00;;;17.30;88.20;;;;;;4948298;28;20039;-67
2022/05/28 08:54:40;;;;;;;0.00;0.00;;;16.90;88.70;;;;;;4955588;28;20031;-61
2022/05/28 08:57:15;;;;;;;0.00;0.00;;;16.70;89.60;;;;;;4972883;28;20045;-64
2022/05/28 08:59:53;;;;;;;3.50;0.82;;;16.50;90.30;;;;;;4955314;28;20031;-62
2022/05/28 09:02:46;;;;;;;0.10;0.10;;;16.50;90.20;;;;;;4955553;28;20031;-62
2022/05/28 09:05:51;;;;;;;4.50;1.33;;;16.60;90.50;;;;;;4957004;28;20046;-62
2022/05/28 09:08:40;;;;;;;0.25;0.22;;;16.90;90.00;;;;;;4956949;28;20049;-63
2022/05/28 09:11:28;;;;;;;2.10;0.73;;;16.90;89.40;;;;;;4955790;28;20047;-62
2022/05/28 09:13:54;;;;;;;0.00;0.00;;;16.90;89.80;;;;;;4957475;28;20594;-62
2022/05/28 09:16:36;;;;;;;0.00;0.00;;;17.10;90.00;;;;;;4954565;28;20395;-63
2022/05/28 09:19:09;;;;;;;1.05;0.95;;;17.60;87.80;;;;;;4954708;28;20495;-62
2022/05/28 09:21:38;;;;;;;0.00;0.00;;;17.80;87.30;;;;;;4954820;28;20657;-61
2022/05/28 09:24:12;;;;;;;0.00;0.00;;;17.80;85.40;;;;;;4939362;28;20622;-62
2022/05/28 09:27:46;;;;;;;0.15;0.15;;;17.80;85.70;;;;;;4972151;28;20035;-62
2022/05/28 09:30:35;;;;;;;0.00;0.00;;;17.60;86.30;;;;;;4911402;28;20042;-62
2022/05/28 09:33:28;;;;;;;0.15;0.08;;;17.30;86.70;;;;;;4953059;28;20491;-61
2022/05/28 09:36:31;;;;;;;0.10;0.10;;;17.10;88.20;;;;;;4971762;28;20377;-62
2022/05/28 09:39:25;;;;;;;0.00;0.00;;;17.00;89.20;;;;;;4964565;28;20106;-62
2022/05/28 09:42:29;;;;;;;0.52;0.52;;;17.00;89.60;;;;;;4944047;29;20044;-62
2022/05/28 09:45:00;;;;;;;0.00;0.00;;;17.20;88.30;;;;;;4941595;29;20024;-62
2022/05/28 09:47:26;;;;;;;0.52;0.28;;;17.30;88.90;;;;;;4933159;29;20078;-62
2022/05/28 09:49:56;;;;;;;0.00;0.00;;;17.40;89.70;;;;;;4932727;29;20067;-62
2022/05/28 09:52:22;;;;;;;5.53;1.85;;;17.80;87.70;;;;;;4969085;28;20030;-62
2022/05/28 09:54:47;;;;;;;0.40;0.40;;;18.20;86.50;;;;;;4971912;28;20061;-62
2022/05/28 09:57:28;;;;;;;0.10;0.10;;;18.10;82.80;;;;;;4972018;28;20068;-62
2022/05/28 10:00:03;;;;;;;0.08;0.05;;;18.20;82.50;;;;;;4953654;28;20027;-62
2022/05/28 10:02:34;;;;;;;0.00;0.00;;;18.30;82.70;;;;;;4926490;29;20068;-62
2022/05/28 10:05:13;;;;;;;0.00;0.00;;;18.00;82.10;;;;;;4909704;29;20035;-61
2022/05/28 10:07:45;;;;;;;1.88;0.22;;;17.90;82.90;;;;;;4964414;28;20035;-62
2022/05/28 10:10:30;;;;;;;1.88;1.17;;;18.00;82.70;;;;;;4924866;29;20031;-62
2022/05/28 10:13:28;;;;;;;0.00;0.00;;;18.50;83.70;;;;;;4935145;29;20035;-62
2022/05/28 10:15:59;;;;;;;0.00;0.00;;;19.00;80.80;;;;;;4933186;29;20050;-63
2022/05/28 10:18:34;;;;;;;0.05;0.05;;;19.00;80.10;;;;;;4951381;29;20119;-62
2022/05/28 10:21:20;;;;;;;0.05;0.05;;;18.70;80.70;;;;;;4957835;23;20054;-62
2022/05/28 10:24:00;;;;;;;0.00;0.00;;;18.50;81.20;;;;;;4969013;28;20101;-61
2022/05/28 10:26:45;;;;;;;0.00;0.00;;;18.20;79.40;;;;;;4953014;28;20126;-62
2022/05/28 10:29:41;;;;;;;0.00;0.00;;;18.20;79.70;;;;;;4962294;28;20394;-62
2022/05/28 10:32:38;;;;;;;0.00;0.00;;;18.10;79.20;;;;;;4973242;28;20634;-63
2022/05/28 10:35:25;;;;;;;0.00;0.00;;;18.20;79.50;;;;;;4971386;28;20145;-63
2022/05/28 10:37:51;;;;;;;0.00;0.00;;;18.00;80.60;;;;;;4990618;28;20026;-62
2022/05/28 10:40:27;;;;;;;0.10;0.10;;;18.50;79.80;;;;;;4967705;28;20035;-62
2022/05/28 10:43:02;;;;;;;0.70;0.70;;;18.20;79.50;;;;;;4970618;28;20046;-62
2022/05/28 10:45:44;;;;;;;0.00;0.00;;;17.90;80.20;;;;;;4954124;28;20026;-62
2022/05/28 10:48:32;;;;;;;0.28;0.28;;;18.00;80.40;;;;;;4953952;28;20447;-62
2022/05/28 10:51:43;;;;;;;0.08;0.08;;;17.70;80.50;;;;;;4953998;28;20475;-62
2022/05/28 10:54:49;;;;;;;0.35;0.17;;;17.80;81.50;;;;;;4920067;28;20090;-62
2022/05/28 10:58:07;;;;;;;0.00;0.00;;;18.00;81.20;;;;;;4969841;28;20030;-62
2022/05/28 11:01:13;;;;;;;0.00;0.00;;;18.20;80.60;;;;;;4950713;29;20162;-62
2022/05/28 11:04:39;;;;;;;0.03;0.03;;;18.50;80.00;;;;;;4937254;29;20098;-61
2022/05/28 11:07:08;;;;;;;0.00;0.00;;;18.50;79.80;;;;;;4934156;29;20526;-62
2022/05/28 11:09:54;;;;;;;0.10;0.10;;;19.00;80.50;;;;;;4959084;28;20020;-62
2022/05/28 11:13:09;;;;;;;0.00;0.00;;;19.20;77.90;;;;;;4934940;29;20114;-62
2022/05/28 11:16:32;;;;;;;0.00;0.00;;;19.10;78.30;;;;;;4950457;28;20035;-62
2022/05/28 11:19:26;;;;;;;0.00;0.00;;;19.00;78.00;;;;;;4969918;28;20035;-62
2022/05/28 11:22:31;;;;;;;0.00;0.00;;;19.00;75.70;;;;;;4954726;28;20407;-62
2022/05/28 11:25:05;;;;;;;0.00;0.00;;;18.70;75.80;;;;;;4971120;28;20058;-62
2022/05/28 11:27:46;;;;;;;0.00;0.00;;;18.40;75.00;;;;;;4969909;28;20031;-62
2022/05/28 11:30:52;;;;;;;0.00;0.00;;;18.40;75.90;;;;;;4970278;28;20030;-62
2022/05/28 11:33:35;;;;;;;0.00;0.00;;;18.40;76.70;;;;;;4965551;28;20043;-61
2022/05/28 11:36:16;;;;;;;0.10;0.05;;;18.20;76.90;;;;;;4969685;28;20077;-62
2022/05/28 11:39:23;;;;;;;0.00;0.00;;;18.20;78.10;;;;;;4970572;28;20451;-62
2022/05/28 11:41:54;;;;;;;0.00;0.00;;;18.10;77.30;;;;;;4972784;28;20038;-62
2022/05/28 11:44:37;;;;;;;0.00;0.00;;;18.30;77.50;;;;;;4968635;28;20062;-62
2022/05/28 11:47:57;;;;;;;0.03;0.00;;;18.70;76.40;;;;;;4940854;28;20028;-62
2022/05/28 11:53:54;;;;;;;0.00;0.00;;;18.20;77.90;;;;;;4965866;28;20030;-62
2022/05/28 11:56:30;;;;;;;;;;;19.00;76.90;;;;;;4957255;28;20039;-63
2022/05/28 11:59:26;;;;;;;0.00;0.00;;;19.50;75.10;;;;;;4971882;28;19918;-63
2022/05/28 12:02:03;;;;;;;0.00;0.00;;;19.70;75.10;;;;;;4970288;28;20050;-63
2022/05/28 12:04:30;;;;;;;0.00;0.00;;;20.00;73.60;;;;;;4955981;28;20380;-64
2022/05/28 12:07:05;;;;;;;0.00;0.00;;;20.00;72.90;;;;;;4972994;28;20023;-64
2022/05/28 12:09:39;;;;;;;0.00;0.00;;;20.00;71.40;;;;;;4955412;28;20053;-63
2022/05/28 12:12:26;;;;;;;0.00;0.00;;;19.80;71.10;;;;;;4956849;28;20034;-64
2022/05/28 12:15:26;;;;;;;0.00;0.00;;;19.60;72.10;;;;;;4956688;28;20084;-63
2022/05/28 12:18:23;;;;;;;0.00;0.00;;;19.60;72.10;;;;;;4955480;28;20039;-63
2022/05/28 12:20:58;;;;;;;0.05;0.05;;;19.80;70.00;;;;;;4972682;28;20039;-64
2022/05/28 12:23:43;;;;;;;0.00;0.00;;;19.80;70.20;;;;;;4956125;28;20030;-63
2022/05/28 12:29:38;;;;;;;0.00;0.00;;;19.50;71.90;;;;;;4972655;28;20522;-63
2022/05/28 12:32:20;;;;;;;0.00;0.00;;;19.40;72.30;;;;;;4973158;28;20031;-62
2022/05/28 12:35:22;;;;;;;;;;;19.20;72.90;;;;;;4973470;28;20038;-62
2022/05/28 12:38:19;;;;;;;0.00;0.00;;;19.10;73.90;;;;;;4955499;28;20326;-62
2022/05/28 12:41:00;;;;;;;0.00;0.00;;;19.50;74.20;;;;;;4957961;28;20030;-63
2022/05/28 12:43:36;;;;;;;;;;;19.90;73.90;;;;;;4955773;28;20078;-62
2022/05/28 12:46:20;;;;;;;0.00;0.00;;;20.40;73.00;;;;;;4955555;28;19917;-62
2022/05/28 12:49:02;;;;;;;0.00;0.00;;;20.60;71.10;;;;;;4972285;28;20027;-62
2022/05/28 12:51:46;;;;;;;0.00;0.00;;;20.40;70.50;;;;;;4956925;28;20435;-63
2022/05/28 12:54:34;;;;;;;0.05;0.05;;;20.40;71.10;;;;;;4972650;28;20080;-63
2022/05/28 12:57:27;;;;;;;0.00;0.00;;;20.20;71.50;;;;;;4956108;28;20027;-63
2022/05/28 13:00:19;;;;;;;0.00;0.00;;;19.80;72.10;;;;;;4971898;28;20118;-63
2022/05/28 13:02:46;;;;;;;0.45;0.35;;;19.20;73.50;;;;;;4968544;28;20046;-63
2022/05/28 13:05:32;;;;;;;0.00;0.00;;;18.80;75.90;;;;;;4955157;28;20440;-63
2022/05/28 13:08:04;;;;;;;0.73;0.52;;;18.40;75.60;;;;;;4972574;28;20031;-63
2022/05/28 13:10:30;;;;;;;0.00;0.00;;;18.30;74.20;;;;;;4954302;28;20109;-64
2022/05/28 13:13:18;;;;;;;0.00;0.00;;;18.30;72.80;;;;;;4972309;28;20074;-63
2022/05/28 13:16:35;;;;;;;0.00;0.00;;;18.30;71.50;;;;;;4955733;28;20475;-63
2022/05/28 13:19:48;;;;;;;0.10;0.10;;;18.40;71.60;;;;;;4970983;28;20046;-63
2022/05/28 13:22:57;;;;;;;0.00;0.00;;;18.70;69.40;;;;;;4971792;28;20527;-63
2022/05/28 13:25:42;;;;;;;0.90;0.57;;;19.00;68.80;;;;;;4972610;28;20030;-65
2022/05/28 13:28:55;;;;;;;0.00;0.00;;;19.90;68.60;;;;;;4972134;28;20186;-64
2022/05/28 13:31:36;;;;;;;25.23;0.70;;;20.70;67.10;;;;;;4971980;28;20063;-64
2022/05/28 13:34:04;;;;;;;;;;;21.80;65.00;;;;;;4955451;28;20089;-64
2022/05/28 13:36:32;;;;;;;0.00;0.00;;;21.40;65.90;;;;;;4948390;29;19937;-64